Time;durP1;ratioP1;P1;durP2;ratioP2;P2;SDS_P1;SDS_P2;PMS_P1;PMS_P2;Temp;Humidity;BMP_temperature;BMP_pressure;BME280_temperature;BME280_humidity;BME280_pressure;Samples;Min_cycle;Max_cycle;Signal;HPM_P1;HPM_P2
2022/10/04 00:01:53;;;;;;;6.88;1.50;;;;;;;12.31;89.10;101613.13;7398618;19;20031;-68
2022/10/04 00:04:26;;;;;;;10.32;1.73;;;;;;;12.31;89.14;101609.59;7401112;19;20434;-69
2022/10/04 00:07:00;;;;;;;10.00;1.67;;;;;;;12.30;89.23;101611.38;7400750;19;20031;-68
2022/10/04 00:09:35;;;;;;;8.38;1.80;;;;;;;12.32;89.16;101609.59;7400257;19;20014;-68
2022/10/04 00:12:06;;;;;;;12.80;2.15;;;;;;;12.33;88.75;101610.47;7400130;19;20018;-68
2022/10/04 00:14:40;;;;;;;7.60;1.63;;;;;;;12.33;88.92;101610.47;7398099;19;20014;-68
2022/10/04 00:17:14;;;;;;;9.13;2.03;;;;;;;12.31;88.76;101605.22;7398219;19;20035;-68
2022/10/04 00:19:48;;;;;;;9.48;1.48;;;;;;;12.33;88.46;101613.09;7398196;19;20086;-68
2022/10/04 00:22:25;;;;;;;9.95;2.72;;;;;;;12.30;88.67;101603.47;7397561;19;20498;-68
2022/10/04 00:25:19;;;;;;;11.10;1.88;;;;;;;12.31;88.47;101613.13;7399961;19;20506;-68
2022/10/04 00:28:26;;;;;;;8.63;2.27;;;;;;;12.29;88.49;101614.88;7398370;19;20026;-68
2022/10/04 00:31:20;;;;;;;12.07;2.08;;;;;;;12.29;88.49;101616.66;7400245;19;20413;-68
2022/10/04 00:33:51;;;;;;;9.43;1.58;;;;;;;12.30;88.34;101615.78;7399154;19;20021;-68
2022/10/04 00:36:53;;;;;;;10.25;2.00;;;;;;;12.30;88.28;101602.63;7396644;19;20077;-68
2022/10/04 00:39:43;;;;;;;7.88;1.52;;;;;;;12.28;87.96;101605.25;7399202;19;20031;-68
2022/10/04 00:42:27;;;;;;;11.60;2.00;;;;;;;12.31;87.87;101609.59;7399414;19;20023;-68
2022/10/04 00:45:00;;;;;;;11.45;2.25;;;;;;;12.29;88.01;101614.88;7399121;19;20510;-66
2022/10/04 00:47:36;;;;;;;12.33;2.57;;;;;;;12.27;88.14;101611.44;7398752;19;20015;-67
2022/10/04 00:50:15;;;;;;;12.45;1.75;;;;;;;12.29;88.05;101609.63;7399584;19;20031;-67
2022/10/04 00:52:49;;;;;;;11.65;1.73;;;;;;;12.27;87.87;101616.69;7399470;19;20026;-67
2022/10/04 00:55:32;;;;;;;8.57;2.33;;;;;;;12.26;87.80;101612.31;7398197;19;20035;-67
2022/10/04 00:58:04;;;;;;;12.05;1.95;;;;;;;12.26;87.82;101601.78;7396979;19;20037;-67
2022/10/04 01:00:34;;;;;;;12.25;2.50;;;;;;;12.25;87.77;101609.72;7399120;19;20015;-68
2022/10/04 01:03:09;;;;;;;7.45;2.05;;;;;;;12.22;87.70;101605.38;7396543;19;20019;-67
2022/10/04 01:05:40;;;;;;;8.98;1.92;;;;;;;12.23;87.66;101614.97;7398391;19;20502;-68
2022/10/04 01:08:12;;;;;;;7.90;2.72;;;;;;;12.20;87.70;101612.41;7397303;19;20015;-67
2022/10/04 01:10:48;;;;;;;9.60;2.25;;;;;;;12.19;87.76;101608.03;7398144;19;20511;-68
2022/10/04 01:13:21;;;;;;;11.30;2.47;;;;;;;12.15;87.84;101608.97;7398751;19;20027;-67
2022/10/04 01:15:55;;;;;;;13.07;2.40;;;;;;;12.14;87.93;101620.38;7396713;19;20086;-67
2022/10/04 01:18:34;;;;;;;9.80;2.10;;;;;;;12.12;88.04;101616.91;7396818;19;20086;-67
2022/10/04 01:21:08;;;;;;;11.40;2.28;;;;;;;12.09;88.00;101623.06;7398614;19;20022;-67
2022/10/04 01:23:45;;;;;;;8.43;2.47;;;;;;;12.07;88.24;101614.34;7395738;19;20489;-67
2022/10/04 01:26:42;;;;;;;8.15;1.90;;;;;;;12.04;87.92;101612.63;7398335;19;20019;-68
2022/10/04 01:29:14;;;;;;;9.88;1.75;;;;;;;12.03;87.84;101620.53;7397562;19;20018;-68
2022/10/04 01:31:45;;;;;;;11.10;2.75;;;;;;;12.01;88.09;101614.44;7397597;19;20010;-67
2022/10/04 01:34:16;;;;;;;9.40;2.45;;;;;;;11.98;88.00;101611.81;7394308;19;20018;-68
2022/10/04 01:36:46;;;;;;;8.25;1.90;;;;;;;11.96;88.03;101611.00;7395377;19;20499;-67
2022/10/04 01:39:18;;;;;;;9.40;2.70;;;;;;;11.95;87.96;101611.84;7398395;19;20015;-68
2022/10/04 01:41:52;;;;;;;9.15;3.03;;;;;;;11.93;87.90;101605.72;7395462;19;20381;-67
2022/10/04 01:44:29;;;;;;;12.45;2.60;;;;;;;11.90;87.88;101609.28;7397520;19;20019;-67
2022/10/04 01:47:01;;;;;;;14.40;2.65;;;;;;;11.90;88.06;101606.66;7397372;19;20102;-67
2022/10/04 01:49:33;;;;;;;7.20;2.22;;;;;;;11.87;87.98;101594.41;7396869;19;20031;-67
2022/10/04 01:52:05;;;;;;;13.68;2.85;;;;;;;11.88;87.82;101605.81;7397296;19;20043;-67
2022/10/04 01:54:40;;;;;;;9.93;3.17;;;;;;;11.88;88.01;101608.44;7396911;19;20021;-67
2022/10/04 01:57:15;;;;;;;10.88;2.90;;;;;;;11.88;87.70;101597.94;7396285;19;20014;-68
2022/10/04 01:59:50;;;;;;;8.02;2.03;;;;;;;11.85;88.01;101598.84;7396429;19;20481;-67
2022/10/04 02:02:30;;;;;;;11.05;2.33;;;;;;;11.86;88.22;101592.66;7397282;19;20035;-67
2022/10/04 02:05:01;;;;;;;9.60;1.95;;;;;;;11.86;88.01;101600.56;7395406;19;20019;-67
2022/10/04 02:07:35;;;;;;;14.25;3.03;;;;;;;11.85;88.34;101595.31;7396935;19;20023;-68
2022/10/04 02:10:10;;;;;;;9.50;2.33;;;;;;;11.84;88.42;101585.69;7397940;19;20045;-67
2022/10/04 02:12:40;;;;;;;8.85;2.45;;;;;;;11.83;88.36;101595.34;7396617;19;20507;-68
2022/10/04 02:15:11;;;;;;;7.72;2.22;;;;;;;11.82;88.44;101590.97;7395495;19;20018;-68
2022/10/04 02:17:43;;;;;;;9.65;2.28;;;;;;;11.80;88.66;101590.13;7394719;19;20018;-67
2022/10/04 02:20:16;;;;;;;13.65;2.75;;;;;;;11.79;88.76;101584.88;7394028;19;20010;-67
2022/10/04 02:22:55;;;;;;;10.23;3.30;;;;;;;11.77;88.72;101584.91;7394300;19;20028;-67
2022/10/04 02:25:26;;;;;;;9.10;2.60;;;;;;;11.75;88.89;101586.69;7394756;19;20045;-67
2022/10/04 02:27:55;;;;;;;8.73;3.05;;;;;;;11.74;89.03;101595.47;7395281;19;20018;-67
2022/10/04 02:30:24;;;;;;;10.70;3.08;;;;;;;11.73;88.93;101583.22;7395334;19;20023;-67
2022/10/04 02:32:59;;;;;;;10.77;2.63;;;;;;;11.72;89.43;101595.47;7395487;19;20445;-68
2022/10/04 02:35:30;;;;;;;10.13;2.17;;;;;;;11.71;89.03;101585.00;7393411;19;20014;-68
2022/10/04 02:38:11;;;;;;;9.52;2.38;;;;;;;11.70;89.27;101584.13;7393025;19;20509;-67
2022/10/04 02:40:51;;;;;;;9.50;2.45;;;;;;;11.67;89.31;101584.16;7395716;19;20031;-67
2022/10/04 02:43:25;;;;;;;14.00;3.03;;;;;;;11.66;89.47;101586.81;7395867;19;20015;-67
2022/10/04 02:45:56;;;;;;;;;;;;;;;11.62;90.18;101580.72;7395051;19;20011;-68
2022/10/04 02:48:40;;;;;;;9.65;3.50;;;;;;;11.60;89.66;101589.50;7394131;19;19923;-68
2022/10/04 02:51:21;;;;;;;12.23;2.80;;;;;;;11.57;89.51;101582.53;7395462;19;20374;-67
2022/10/04 02:53:59;;;;;;;6.22;2.38;;;;;;;11.56;89.89;101584.31;7394038;19;20018;-67
2022/10/04 02:56:31;;;;;;;14.38;2.67;;;;;;;11.54;90.19;101582.59;7394044;19;20026;-67
2022/10/04 02:59:03;;;;;;;9.77;2.97;;;;;;;11.53;90.08;101584.31;7393752;19;20044;-68
2022/10/04 03:01:43;;;;;;;12.48;3.78;;;;;;;11.51;90.43;101573.00;7392980;19;20549;-68
2022/10/04 03:04:15;;;;;;;7.88;2.40;;;;;;;11.50;90.42;101571.25;7394688;19;20032;-68
2022/10/04 03:06:46;;;;;;;6.93;2.63;;;;;;;11.51;90.87;101570.34;7394346;19;20015;-67
2022/10/04 03:09:16;;;;;;;10.98;2.60;;;;;;;11.50;90.89;101573.88;7394532;19;20484;-68
2022/10/04 03:11:48;;;;;;;12.35;2.33;;;;;;;11.50;90.91;101571.25;7394987;19;20041;-67
2022/10/04 03:14:21;;;;;;;15.00;3.78;;;;;;;11.50;90.66;101571.25;7394382;19;20014;-67
2022/10/04 03:16:53;;;;;;;11.80;3.05;;;;;;;11.50;90.82;101576.50;7392980;19;20014;-66
2022/10/04 03:19:25;;;;;;;14.63;3.40;;;;;;;11.50;91.22;101570.34;7394863;19;20019;-67
2022/10/04 03:21:57;;;;;;;12.52;4.43;;;;;;;11.50;91.04;101572.97;7394591;19;20022;-67
2022/10/04 03:24:30;;;;;;;17.48;4.13;;;;;;;11.49;91.33;101580.00;7394813;19;20110;-65
2022/10/04 03:27:05;;;;;;;15.15;5.97;;;;;;;11.50;91.41;101579.13;7393731;19;20018;-67
2022/10/04 03:29:35;;;;;;;10.93;4.55;;;;;;;11.49;91.30;101577.38;7393969;19;20028;-67
2022/10/04 03:32:06;;;;;;;13.05;4.70;;;;;;;11.50;91.16;101572.97;7394566;19;20014;-67
2022/10/04 03:34:40;;;;;;;11.38;3.95;;;;;;;11.50;91.64;101580.88;7394095;19;20041;-67
2022/10/04 03:37:13;;;;;;;9.85;3.55;;;;;;;11.50;91.36;101581.75;7392866;19;20014;-67
2022/10/04 03:39:45;;;;;;;11.82;3.83;;;;;;;11.49;91.57;101576.53;7393943;19;20035;-67
2022/10/04 03:42:18;;;;;;;10.85;4.00;;;;;;;11.49;91.60;101582.63;7393510;19;20439;-67
2022/10/04 03:44:48;;;;;;;13.30;4.68;;;;;;;11.48;91.59;101580.03;7394044;19;20416;-67
2022/10/04 03:47:21;;;;;;;13.88;4.07;;;;;;;11.46;91.70;101580.06;7391298;19;20084;-67
2022/10/04 03:49:51;;;;;;;13.98;3.92;;;;;;;11.47;91.80;101579.16;7391538;19;20418;-67
2022/10/04 03:52:24;;;;;;;13.27;4.60;;;;;;;11.46;91.64;101581.78;7392688;19;20035;-66
2022/10/04 03:54:55;;;;;;;12.43;4.57;;;;;;;11.45;91.72;101580.94;7392749;19;20395;-66
2022/10/04 03:57:26;;;;;;;13.82;4.55;;;;;;;11.45;91.83;101580.06;7398556;19;20400;-67
2022/10/04 03:59:55;;;;;;;13.52;4.07;;;;;;;11.44;91.85;101573.06;7398394;19;20082;-67
2022/10/04 04:02:35;;;;;;;15.43;4.20;;;;;;;11.43;91.59;101573.97;7400301;19;20028;-67
2022/10/04 04:05:12;;;;;;;9.43;4.05;;;;;;;11.43;91.54;101576.59;7400441;19;20024;-66
2022/10/04 04:07:45;;;;;;;6.78;4.03;;;;;;;11.42;91.47;101583.59;7400390;19;20138;-67
2022/10/04 04:10:23;;;;;;;12.10;4.03;;;;;;;11.38;90.99;101577.50;7397517;19;20485;-67
2022/10/04 04:12:58;;;;;;;11.75;5.10;;;;;;;11.39;91.04;101586.25;7400249;19;20011;-67
2022/10/04 04:15:31;;;;;;;12.77;4.57;;;;;;;11.36;90.80;101576.66;7397596;19;20074;-67
2022/10/04 04:18:03;;;;;;;9.00;3.70;;;;;;;11.36;90.56;101595.06;7398141;19;20425;-68
2022/10/04 04:20:35;;;;;;;7.60;3.70;;;;;;;11.35;90.44;101584.56;7400203;19;20078;-67
2022/10/04 04:23:09;;;;;;;9.10;4.40;;;;;;;11.34;90.21;101598.59;7400107;19;20081;-66
2022/10/04 04:25:40;;;;;;;10.68;3.95;;;;;;;11.33;89.92;101589.81;7399881;19;20018;-67
2022/10/04 04:28:24;;;;;;;11.88;3.30;;;;;;;11.30;89.47;101587.25;7397624;19;20018;-66
2022/10/04 04:30:57;;;;;;;10.40;4.47;;;;;;;11.29;89.47;101588.13;7397310;19;20014;-67
2022/10/04 04:33:31;;;;;;;8.98;3.85;;;;;;;11.30;89.39;101583.72;7399371;19;20082;-68
2022/10/04 04:36:06;;;;;;;10.60;4.38;;;;;;;11.29;89.24;101585.50;7398218;19;20007;-67
2022/10/04 04:39:32;;;;;;;8.23;4.40;;;;;;;11.29;89.35;101593.38;7396717;19;20014;-68
2022/10/04 04:41:26;;;;;;;9.68;3.63;;;;;;;11.29;88.83;101588.13;7397886;19;20014;-67
2022/10/04 04:43:57;;;;;;;11.23;3.75;;;;;;;11.28;88.78;101590.78;7399620;19;20023;-66
2022/10/04 04:46:27;;;;;;;8.65;4.45;;;;;;;11.27;88.73;101589.03;7399084;19;20079;-67
2022/10/04 04:49:02;;;;;;;11.20;4.43;;;;;;;11.26;88.65;101596.06;7396293;19;20049;-67
2022/10/04 04:51:33;;;;;;;13.07;4.50;;;;;;;11.27;88.65;101594.28;7396094;19;20082;-68
2022/10/04 04:54:06;;;;;;;8.57;3.25;;;;;;;11.24;88.66;101598.66;7398224;19;20018;-67
2022/10/04 04:56:36;;;;;;;10.93;4.10;;;;;;;11.27;88.90;101596.91;7396474;19;20435;-66
2022/10/04 04:59:09;;;;;;;13.25;4.10;;;;;;;11.25;88.63;101594.31;7398060;19;20070;-69
2022/10/04 05:01:44;;;;;;;7.50;3.92;;;;;;;11.27;88.61;101600.38;7397989;19;20018;-68
2022/10/04 05:04:25;;;;;;;12.60;4.10;;;;;;;11.25;88.19;101603.03;7397521;19;20074;-68
2022/10/04 05:07:05;;;;;;;11.57;4.65;;;;;;;11.25;88.32;101592.53;7393753;19;20014;-66
2022/10/04 05:09:36;;;;;;;10.23;4.60;;;;;;;11.24;88.53;101606.53;7396618;19;20014;-68
2022/10/04 05:12:09;;;;;;;9.85;4.18;;;;;;;11.25;88.42;101600.41;7395863;19;20361;-68
2022/10/04 05:14:48;;;;;;;10.70;4.15;;;;;;;11.24;88.28;101605.69;7397714;19;20112;-67
2022/10/04 05:17:21;;;;;;;15.63;4.93;;;;;;;11.24;88.19;101603.91;7395945;19;20509;-68
2022/10/04 05:19:51;;;;;;;11.43;4.80;;;;;;;11.24;88.26;101603.91;7394878;19;20496;-68
2022/10/04 05:22:23;;;;;;;12.52;4.55;;;;;;;11.26;88.29;101603.94;7394196;19;20488;-67
2022/10/04 05:24:56;;;;;;;13.90;4.88;;;;;;;11.26;88.21;101603.94;7396652;19;20081;-67
2022/10/04 05:27:29;;;;;;;13.02;5.05;;;;;;;11.25;88.32;101608.28;7399593;19;20033;-69
2022/10/04 05:30:06;;;;;;;12.07;4.93;;;;;;;11.27;88.15;101605.66;7397763;19;20081;-68
2022/10/04 05:32:52;;;;;;;13.85;6.47;;;;;;;11.28;88.19;101606.53;7395595;19;20509;-68
2022/10/04 05:35:23;;;;;;;13.45;5.57;;;;;;;11.27;87.86;101615.28;7396713;19;20014;-69
2022/10/04 05:38:03;;;;;;;11.20;4.60;;;;;;;11.27;87.77;101604.78;7393906;19;20078;-68
2022/10/04 05:40:41;;;;;;;16.52;5.45;;;;;;;11.28;87.74;101611.78;7394617;19;20119;-67
2022/10/04 05:43:24;;;;;;;10.73;4.82;;;;;;;11.28;87.66;101609.16;7395900;19;20085;-68
2022/10/04 05:46:22;;;;;;;13.77;6.28;;;;;;;11.28;87.50;101602.13;7396006;19;20481;-68
2022/10/04 05:48:56;;;;;;;10.63;5.18;;;;;;;11.28;87.18;101611.78;7394483;19;20090;-67
2022/10/04 05:51:27;;;;;;;14.88;5.40;;;;;;;11.29;87.42;101613.53;7396771;19;20369;-67
2022/10/04 05:53:56;;;;;;;10.98;5.55;;;;;;;11.28;87.43;101610.03;7396652;19;20039;-68
2022/10/04 05:56:45;;;;;;;14.90;5.47;;;;;;;11.32;87.58;101629.25;7394975;19;20078;-68
2022/10/04 05:59:31;;;;;;;12.80;4.68;;;;;;;11.33;87.78;101631.00;7396506;19;20018;-68
2022/10/04 06:02:11;;;;;;;9.77;5.85;;;;;;;11.34;87.79;101628.34;7396317;19;20031;-68
2022/10/04 06:04:58;;;;;;;15.85;5.30;;;;;;;11.35;88.07;101623.97;7395493;19;20485;-67
2022/10/04 06:07:31;;;;;;;12.40;4.43;;;;;;;11.37;88.21;101632.69;7393991;19;20019;-67
2022/10/04 06:10:17;;;;;;;12.00;4.72;;;;;;;11.37;88.38;101628.31;7395067;19;20014;-68
2022/10/04 06:12:54;;;;;;;12.85;4.65;;;;;;;11.38;88.56;101629.19;7394409;19;20014;-67
2022/10/04 06:15:47;;;;;;;12.43;4.65;;;;;;;11.38;88.86;101626.56;7396284;19;20021;-67
2022/10/04 06:18:40;;;;;;;12.07;4.43;;;;;;;11.38;88.83;101634.44;7392955;19;20015;-68
2022/10/04 06:21:21;;;;;;;16.55;5.32;;;;;;;11.38;88.90;101637.06;7396325;19;20365;-67
2022/10/04 06:23:58;;;;;;;14.13;5.30;;;;;;;11.38;88.85;101635.28;7395964;19;20022;-68
2022/10/04 06:26:32;;;;;;;10.85;5.03;;;;;;;11.40;88.88;101635.31;7396502;19;20078;-67
2022/10/04 06:29:04;;;;;;;8.38;5.03;;;;;;;11.41;88.89;101632.66;7394138;19;20428;-68
2022/10/04 06:32:08;;;;;;;11.75;5.80;;;;;;;11.41;88.99;101637.91;7393646;19;20423;-67
2022/10/04 06:35:05;;;;;;;17.27;8.32;;;;;;;11.42;88.83;101638.75;7396037;19;20054;-68
2022/10/04 06:37:48;;;;;;;12.05;5.30;;;;;;;11.42;88.85;101630.88;7392682;19;20082;-68
2022/10/04 06:40:48;;;;;;;17.73;5.90;;;;;;;11.43;88.82;101645.78;7393242;19;20077;-68
2022/10/04 06:43:47;;;;;;;8.85;5.18;;;;;;;11.45;88.83;101635.22;7395579;19;20085;-68
2022/10/04 06:46:21;;;;;;;7.65;4.13;;;;;;;11.44;88.47;101633.47;7393963;19;20078;-68
2022/10/04 06:49:21;;;;;;;15.63;6.43;;;;;;;11.47;88.49;101646.59;7393230;19;20398;-68
2022/10/04 06:52:07;;;;;;;7.60;4.30;;;;;;;11.47;88.29;101633.47;7395711;19;20074;-67
2022/10/04 06:54:51;;;;;;;11.55;4.13;;;;;;;11.50;87.90;101644.81;7393569;19;20098;-67
2022/10/04 06:57:47;;;;;;;8.43;3.70;;;;;;;11.52;87.41;101643.03;7393813;19;20089;-66
2022/10/04 07:00:20;;;;;;;11.40;5.85;;;;;;;11.54;87.80;101643.88;7395149;19;20039;-68
2022/10/04 07:02:55;;;;;;;10.63;4.05;;;;;;;11.57;86.82;101649.13;7395090;19;20070;-67
2022/10/04 07:05:30;;;;;;;7.95;4.28;;;;;;;11.58;86.69;101650.84;7394500;19;20037;-67
2022/10/04 07:08:08;;;;;;;9.73;4.70;;;;;;;11.62;86.83;101654.31;7393635;19;20014;-68
2022/10/04 07:10:46;;;;;;;9.20;3.58;;;;;;;11.66;86.19;101658.63;7394410;19;20435;-68
2022/10/04 07:13:32;;;;;;;6.15;3.35;;;;;;;11.70;86.12;101665.63;7394947;19;20362;-69
2022/10/04 07:16:07;;;;;;;7.90;3.75;;;;;;;11.71;85.74;101658.59;7393908;19;20506;-68
2022/10/04 07:18:45;;;;;;;10.65;4.50;;;;;;;11.75;86.02;101665.53;7392826;19;20019;-67
2022/10/04 07:21:17;;;;;;;10.65;3.78;;;;;;;11.79;86.05;101662.00;7396226;19;20018;-66
2022/10/04 07:23:52;;;;;;;11.23;4.32;;;;;;;11.78;85.77;101662.00;7394451;19;20074;-66
2022/10/04 07:26:32;;;;;;;11.20;4.65;;;;;;;11.84;86.00;101670.72;7396047;19;20090;-66
2022/10/04 07:31:49;;;;;;;12.23;4.65;;;;;;;11.87;85.84;101673.28;7400757;19;20081;-66
2022/10/04 07:34:22;;;;;;;12.75;6.03;;;;;;;11.90;86.00;101668.00;7403648;19;20014;-66
2022/10/04 07:37:02;;;;;;;10.87;4.97;;;;;;;11.98;86.05;101669.69;7400324;19;20078;-68
2022/10/04 07:39:45;;;;;;;10.30;3.38;;;;;;;12.00;85.62;101679.28;7402568;19;20015;-68
2022/10/04 07:42:28;;;;;;;12.20;4.33;;;;;;;12.02;85.82;101680.16;7403639;19;20010;-67
2022/10/04 07:45:05;;;;;;;9.45;3.40;;;;;;;12.05;85.91;101674.84;7402369;19;20014;-66
2022/10/04 07:47:34;;;;;;;10.57;3.88;;;;;;;12.09;85.77;101678.31;7401167;19;20491;-66
2022/10/04 07:50:15;;;;;;;6.55;2.95;;;;;;;12.13;85.91;101682.66;7402869;19;20018;-66
2022/10/04 07:52:52;;;;;;;4.60;2.45;;;;;;;12.16;85.68;101682.59;7401133;19;20421;-67
2022/10/04 07:55:27;;;;;;;6.03;2.70;;;;;;;12.19;85.67;101682.56;7402870;19;20015;-66
2022/10/04 07:58:15;;;;;;;12.07;3.55;;;;;;;12.27;85.60;101676.31;7400662;19;20026;-67
2022/10/04 08:00:52;;;;;;;10.38;3.72;;;;;;;12.32;85.50;101682.38;7401963;19;20484;-66
2022/10/04 08:03:42;;;;;;;8.35;3.22;;;;;;;12.36;85.39;101684.97;7401930;19;20023;-65
2022/10/04 08:06:19;;;;;;;8.32;3.50;;;;;;;12.42;85.22;101684.00;7403116;19;20078;-67
2022/10/04 08:09:20;;;;;;;7.18;4.00;;;;;;;12.42;84.42;101689.25;7400105;19;20078;-66
2022/10/04 08:11:58;;;;;;;5.63;3.22;;;;;;;12.42;85.07;101693.66;7401793;19;20033;-66
2022/10/04 08:14:41;;;;;;;10.93;4.15;;;;;;;12.43;84.95;101684.88;7400603;19;20019;-66
2022/10/04 08:17:19;;;;;;;9.85;4.03;;;;;;;12.48;85.10;101699.69;7401375;19;20032;-66
2022/10/04 08:19:58;;;;;;;7.63;3.05;;;;;;;12.53;84.84;101691.75;7399547;19;20114;-67
2022/10/04 08:22:36;;;;;;;10.50;3.90;;;;;;;12.60;85.00;101703.03;7399982;19;20018;-66
2022/10/04 08:25:14;;;;;;;8.35;3.60;;;;;;;12.67;84.60;101702.06;7402920;19;20035;-65
2022/10/04 08:31:00;;;;;;;9.10;3.20;;;;;;;12.73;83.31;101691.44;7402223;19;20092;-67
2022/10/04 08:33:46;;;;;;;11.57;4.50;;;;;;;12.75;83.78;101700.22;7402960;19;20011;-67
2022/10/04 08:36:29;;;;;;;9.32;3.53;;;;;;;12.78;83.49;101697.50;7402280;19;20007;-67
2022/10/04 08:38:59;;;;;;;6.32;3.03;;;;;;;12.82;83.55;101693.06;7400759;19;20035;-67
2022/10/04 08:42:03;;;;;;;7.60;3.65;;;;;;;12.85;83.18;101699.16;7400891;19;20509;-67
2022/10/04 08:45:06;;;;;;;12.02;3.55;;;;;;;12.91;83.01;101694.69;7402406;19;20018;-66
2022/10/04 08:48:17;;;;;;;8.15;3.90;;;;;;;12.99;82.90;101700.69;7399580;19;20019;-67
2022/10/04 08:51:23;;;;;;;9.45;4.00;;;;;;;13.02;81.73;101701.50;7401824;19;20585;-67
2022/10/04 08:54:18;;;;;;;8.07;3.80;;;;;;;13.07;81.93;101709.34;7398624;19;20548;-67
2022/10/04 08:57:16;;;;;;;8.10;3.58;;;;;;;13.13;82.39;101706.59;7400307;19;20564;-66
2022/10/04 09:00:18;;;;;;;8.43;3.10;;;;;;;13.22;81.10;101710.84;7398650;19;20019;-67
2022/10/04 09:03:19;;;;;;;8.27;4.25;;;;;;;13.28;80.68;101708.13;7402304;19;20022;-66
2022/10/04 09:06:01;;;;;;;15.85;3.33;;;;;;;13.34;81.02;101712.38;7399379;19;20014;-66
2022/10/04 09:09:27;;;;;;;8.95;3.08;;;;;;;13.38;79.82;101708.81;7399677;19;20082;-67
2022/10/04 09:12:14;;;;;;;12.73;2.70;;;;;;;13.42;80.80;101701.72;7401822;19;20028;-67
2022/10/04 09:15:13;;;;;;;10.27;2.80;;;;;;;13.47;80.17;101700.78;7401168;19;20011;-67
2022/10/04 09:17:55;;;;;;;6.22;2.28;;;;;;;13.52;79.34;101704.19;7398873;19;20082;-66
2022/10/04 09:20:41;;;;;;;10.82;2.78;;;;;;;13.59;79.61;101698.81;7400984;19;20014;-67
2022/10/04 09:23:24;;;;;;;5.82;2.67;;;;;;;13.69;79.96;101703.00;7400374;19;20027;-66
2022/10/04 09:26:05;;;;;;;8.02;2.05;;;;;;;13.78;78.09;101700.16;7398769;19;20025;-66
2022/10/04 09:29:01;;;;;;;6.30;2.10;;;;;;;13.85;77.07;101709.69;7399557;19;20025;-68
2022/10/04 09:32:14;;;;;;;7.75;2.35;;;;;;;13.91;77.33;101706.06;7400658;19;20014;-67
2022/10/04 09:35:02;;;;;;;9.95;2.30;;;;;;;13.96;76.38;101698.06;7393788;19;20098;-69
2022/10/04 09:37:45;;;;;;;4.53;2.20;;;;;;;14.02;77.08;101700.56;7393431;19;20006;-67
2022/10/04 09:40:46;;;;;;;7.32;1.65;;;;;;;14.09;76.20;101698.66;7394894;19;20102;-71
2022/10/04 09:43:49;;;;;;;7.70;2.08;;;;;;;14.18;75.96;101706.41;7397739;19;20018;-70
2022/10/04 09:46:33;;;;;;;9.00;1.83;;;;;;;14.25;76.11;101702.72;7395397;19;20416;-69
2022/10/04 09:49:17;;;;;;;8.73;1.55;;;;;;;14.31;75.59;101693.81;7396913;19;20089;-69
2022/10/04 09:52:08;;;;;;;7.72;1.55;;;;;;;14.35;73.59;101692.81;7397155;19;20014;-69
2022/10/04 09:55:26;;;;;;;5.57;1.30;;;;;;;14.39;75.06;101688.34;7394840;19;20037;-69
2022/10/04 09:58:15;;;;;;;6.30;1.30;;;;;;;14.40;74.36;101690.94;7392749;19;20054;-69
2022/10/04 10:00:52;;;;;;;8.05;1.52;;;;;;;14.42;74.43;101691.78;7396223;19;20392;-69
2022/10/04 10:03:48;;;;;;;6.07;1.10;;;;;;;14.42;73.40;101686.50;7396950;19;20082;-69
2022/10/04 10:06:32;;;;;;;9.88;1.30;;;;;;;14.44;74.65;101687.31;7396477;19;20019;-71
2022/10/04 10:09:17;;;;;;;7.38;1.20;;;;;;;14.48;73.94;101689.00;7396856;19;20022;-69
2022/10/04 10:15:01;;;;;;;8.68;1.73;;;;;;;14.64;72.89;101686.00;7395735;19;20010;-70
2022/10/04 10:17:38;;;;;;;7.40;1.25;;;;;;;14.74;73.61;101679.63;7394776;19;20018;-70
2022/10/04 10:20:29;;;;;;;6.85;1.63;;;;;;;14.87;73.03;101685.47;7395579;19;20014;-68
2022/10/04 10:23:16;;;;;;;8.48;2.55;;;;;;;14.97;72.92;101679.09;7394667;19;20050;-70
2022/10/04 10:26:00;;;;;;;5.35;1.38;;;;;;;15.07;72.98;101678.84;7396586;19;20022;-70
2022/10/04 10:29:01;;;;;;;7.45;1.60;;;;;;;15.13;73.13;101678.69;7395007;19;20010;-70
2022/10/04 10:31:59;;;;;;;10.25;1.52;;;;;;;15.20;73.10;101679.38;7395508;19;20018;-69
2022/10/04 10:34:51;;;;;;;6.72;1.80;;;;;;;15.25;71.92;101690.69;7397777;19;20035;-72
2022/10/04 10:37:33;;;;;;;8.50;1.35;;;;;;;15.29;73.02;101689.69;7394118;19;20030;-69
2022/10/04 10:40:25;;;;;;;5.85;1.70;;;;;;;15.31;72.66;101687.91;7395166;19;20018;-71
2022/10/04 10:43:14;;;;;;;6.38;1.60;;;;;;;15.39;72.58;101687.69;7395300;19;20086;-69
2022/10/04 10:46:03;;;;;;;8.93;1.88;;;;;;;15.47;72.69;101685.72;7395204;19;20007;-70
2022/10/04 10:48:47;;;;;;;8.60;1.55;;;;;;;15.54;72.26;101691.69;7393331;19;20041;-68
2022/10/04 10:51:21;;;;;;;6.63;1.42;;;;;;;15.59;72.12;101695.94;7395492;19;20019;-68
2022/10/04 10:54:12;;;;;;;7.82;1.58;;;;;;;15.60;71.77;101686.25;7394564;19;20010;-70
2022/10/04 10:56:48;;;;;;;8.30;1.40;;;;;;;15.66;71.79;101687.84;7395317;19;20018;-70
2022/10/04 11:00:00;;;;;;;4.93;1.60;;;;;;;15.71;71.79;101685.91;7394063;19;20023;-70
2022/10/04 11:02:58;;;;;;;5.55;1.33;;;;;;;15.76;71.07;101676.09;7397777;19;20423;-69
2022/10/04 11:06:00;;;;;;;6.72;1.27;;;;;;;15.78;70.66;101676.91;7395515;19;20011;-69
2022/10/04 11:08:55;;;;;;;5.50;2.05;;;;;;;15.83;70.19;101669.75;7400254;19;20078;-69
2022/10/04 11:11:34;;;;;;;;;;;;;;;15.88;69.92;101672.25;7402625;19;20015;-70
2022/10/04 11:14:25;;;;;;;5.25;1.38;;;;;;;15.96;68.93;101670.25;7402222;19;19978;-69
2022/10/04 11:17:19;;;;;;;5.28;1.73;;;;;;;16.02;70.02;101670.06;7399301;19;20010;-69
2022/10/04 11:20:17;;;;;;;8.02;1.50;;;;;;;16.16;69.13;101682.03;7397163;19;20331;-70
2022/10/04 11:23:22;;;;;;;10.73;2.40;;;;;;;16.29;67.80;101678.09;7399965;19;20018;-71
2022/10/04 11:26:23;;;;;;;6.70;2.38;;;;;;;16.39;69.00;101676.00;7400981;19;20035;-72
2022/10/04 11:28:59;;;;;;;8.80;1.80;;;;;;;16.50;68.66;101667.75;7396351;19;20074;-70
2022/10/04 11:32:12;;;;;;;10.10;2.22;;;;;;;16.60;68.18;101658.56;7400290;19;20018;-70
2022/10/04 11:35:29;;;;;;;7.78;1.27;;;;;;;16.70;66.76;101660.00;7400426;19;20028;-68
2022/10/04 11:38:13;;;;;;;7.63;1.98;;;;;;;16.76;67.58;101651.84;7398025;19;20135;-70
2022/10/04 11:41:02;;;;;;;12.30;1.70;;;;;;;16.84;66.90;101656.03;7400129;19;20019;-68
2022/10/04 11:44:00;;;;;;;6.75;1.60;;;;;;;16.88;65.36;101657.66;7399671;19;20078;-68
2022/10/04 11:46:39;;;;;;;7.47;1.85;;;;;;;16.90;66.19;101655.84;7400986;19;20074;-67
2022/10/04 11:49:24;;;;;;;6.07;1.13;;;;;;;16.88;65.68;101650.59;7399960;19;20485;-69
2022/10/04 11:52:18;;;;;;;4.65;1.50;;;;;;;16.88;64.84;101652.34;7400701;19;20082;-68
2022/10/04 11:55:12;;;;;;;5.43;1.33;;;;;;;16.88;65.74;101650.59;7400844;19;20045;-68
2022/10/04 11:57:47;;;;;;;6.95;1.27;;;;;;;16.91;66.31;101647.00;7399143;19;20078;-68
2022/10/04 12:00:20;;;;;;;4.85;1.35;;;;;;;16.92;66.07;101643.41;7401083;19;20018;-67
2022/10/04 12:03:19;;;;;;;8.55;1.95;;;;;;;16.90;65.03;101642.59;7400195;19;20087;-68
2022/10/04 12:06:12;;;;;;;8.93;1.75;;;;;;;16.87;64.34;101645.31;7397376;19;20018;-67
2022/10/04 12:08:55;;;;;;;5.70;1.27;;;;;;;16.89;65.70;101632.91;7396865;19;20025;-67
2022/10/04 12:14:37;;;;;;;5.82;1.70;;;;;;;17.05;65.02;101630.63;7400173;19;20013;-67
2022/10/04 12:17:51;;;;;;;6.20;1.35;;;;;;;17.22;64.36;101632.66;7398617;19;20024;-67
2022/10/04 12:21:13;;;;;;;4.28;1.10;;;;;;;17.40;63.78;101634.69;7399832;19;20018;-67
2022/10/04 12:24:03;;;;;;;7.15;1.30;;;;;;;17.51;62.57;101628.09;7396747;19;20019;-68
2022/10/04 12:26:54;;;;;;;7.57;1.23;;;;;;;17.58;63.69;101629.63;7397278;19;20018;-68
2022/10/04 12:29:58;;;;;;;3.15;1.13;;;;;;;17.65;63.02;101628.44;7396300;19;20045;-67
2022/10/04 12:32:32;;;;;;;8.18;2.22;;;;;;;17.73;63.62;101625.50;7396345;19;20018;-68
2022/10/04 12:35:09;;;;;;;6.70;2.13;;;;;;;17.90;62.81;101616.91;7398216;19;20417;-72
2022/10/04 12:37:49;;;;;;;7.20;1.60;;;;;;;18.02;62.28;101616.47;7395999;19;20505;-69
2022/10/04 12:40:32;;;;;;;4.88;1.73;;;;;;;18.08;61.43;101610.03;7398563;19;20023;-70